CheckWX is a tool to help pilots better visualize weather data.  It is not intended as a substitute for an official pre-flight weather briefing.

07:27:00 UTC

KMKG TAF
Muskegon County Airport
Muskegon, Michigan, USA
KMKG 230530Z 2306/2406 24010KT P6SM VCSH OVC010 FM230800 28010KT 4SM BR OVC035 FM231200 28011KT P6SM OVC035 FM231400 29014G21KT P6SM BKN035 FM240000 28010KT P6SM SKC

Sep-23@
06:00 UTC

Sep-23 @ 06:00 UTC

Sep-23@
08:00 UTC

Sep-23 @ 08:00 UTC

KMKG 230530Z 2306/2406 24010KT P6SM VCSH OVC010
Wind
  • 240° at 10 KTS
Cloud Levels
  • Overcast at 1,000' AGL

Sep-23@
08:00 UTC

Sep-23 @ 08:00 UTC

Sep-23@
12:00 UTC

Sep-23 @ 12:00 UTC

FM230800 28010KT 4SM BR OVC035

From

From Standard forecast or significant change

Wind
  • 280° at 10 KTS
Conditions
Mist
Cloud Levels
  • Overcast at 3,500' AGL

Sep-23@
12:00 UTC

Sep-23 @ 12:00 UTC

Sep-23@
14:00 UTC

Sep-23 @ 14:00 UTC

FM231200 28011KT P6SM OVC035

From

From Standard forecast or significant change

Wind
  • 280° at 11 KTS
Cloud Levels
  • Overcast at 3,500' AGL

Sep-23@
14:00 UTC

Sep-23 @ 14:00 UTC

Sep-24@
00:00 UTC

Sep-24 @ 00:00 UTC

FM231400 29014G21KT P6SM BKN035

From

From Standard forecast or significant change

Wind
  • 290° at 14 KTS
  • {Gusting to 21 KTS
Cloud Levels
  • Broken at 3,500' AGL

Sep-24@
00:00 UTC

Sep-24 @ 00:00 UTC

Sep-24@
06:00 UTC

Sep-24 @ 06:00 UTC

FM240000 28010KT P6SM SKC

From

From Standard forecast or significant change

Wind
  • 280° at 10 KTS
Cloud Levels
  • Clear skies